createdAt,value
2022-10-17T00:01:08.177Z,3.40
2022-10-17T00:03:37.112Z,3.08
2022-10-17T00:06:08.290Z,2.97
2022-10-17T00:08:36.317Z,3.10
2022-10-17T00:11:07.322Z,2.92
2022-10-17T00:13:35.439Z,2.95
2022-10-17T00:16:03.301Z,3.30
2022-10-17T00:18:32.507Z,3.17
2022-10-17T00:21:00.382Z,3.00
2022-10-17T00:23:30.238Z,3.38
2022-10-17T00:26:02.082Z,3.70
2022-10-17T00:28:29.993Z,3.65
2022-10-17T00:30:58.670Z,3.28
2022-10-17T00:33:26.761Z,3.35
2022-10-17T00:36:05.585Z,3.35
2022-10-17T00:38:33.534Z,3.17
2022-10-17T00:41:01.625Z,3.45
2022-10-17T00:43:29.723Z,3.35
2022-10-17T00:45:57.967Z,3.13
2022-10-17T00:48:27.092Z,4.22
2022-10-17T00:50:55.083Z,3.47
2022-10-17T00:53:24.639Z,3.70
2022-10-17T00:55:54.396Z,3.83
2022-10-17T00:58:22.619Z,3.08
2022-10-17T01:00:50.725Z,3.63
2022-10-17T01:03:18.827Z,3.20
2022-10-17T01:05:47.540Z,3.30
2022-10-17T01:08:15.488Z,3.67
2022-10-17T01:10:52.335Z,3.47
2022-10-17T01:13:25.248Z,3.22
2022-10-17T01:18:38.062Z,3.00
2022-10-17T01:21:26.092Z,3.50
2022-10-17T01:24:32.496Z,3.38
2022-10-17T01:27:16.752Z,3.33
2022-10-17T01:30:01.430Z,3.13
2022-10-17T01:32:35.582Z,3.30
2022-10-17T01:35:06.733Z,3.30
2022-10-17T01:37:39.633Z,3.30
2022-10-17T01:40:11.586Z,3.55
2022-10-17T01:42:43.853Z,3.53
2022-10-17T01:45:15.499Z,3.25
2022-10-17T01:47:47.525Z,3.47
2022-10-17T01:50:18.397Z,3.53
2022-10-17T01:52:49.569Z,3.40
2022-10-17T01:55:20.962Z,3.10
2022-10-17T01:57:51.514Z,3.40
2022-10-17T02:00:21.747Z,2.92
2022-10-17T02:02:57.280Z,3.20
2022-10-17T02:05:28.056Z,3.17
2022-10-17T02:07:55.943Z,3.00
2022-10-17T02:10:32.088Z,3.00
2022-10-17T02:13:05.505Z,3.10
2022-10-17T02:15:59.859Z,3.47
2022-10-17T02:19:09.950Z,3.20
2022-10-17T02:21:43.383Z,3.50
2022-10-17T02:24:19.412Z,3.20
2022-10-17T02:26:51.709Z,3.47
2022-10-17T02:29:21.115Z,3.38
2022-10-17T02:31:52.715Z,3.30
2022-10-17T02:34:26.912Z,3.33
2022-10-17T02:36:57.455Z,3.80
2022-10-17T02:39:26.462Z,3.05
2022-10-17T02:41:55.518Z,3.20
2022-10-17T02:44:24.279Z,3.55
2022-10-17T02:46:56.640Z,3.03
2022-10-17T02:49:28.570Z,3.00
2022-10-17T02:52:02.438Z,3.10
2022-10-17T02:54:35.435Z,3.67
2022-10-17T02:57:08.719Z,3.10
2022-10-17T02:59:37.410Z,3.20
2022-10-17T03:02:06.023Z,3.22
2022-10-17T03:04:35.729Z,3.05
2022-10-17T03:07:12.734Z,3.40
2022-10-17T03:09:40.552Z,3.42
2022-10-17T03:12:08.448Z,3.22
2022-10-17T03:14:36.791Z,3.58
2022-10-17T03:17:05.154Z,3.13
2022-10-17T03:19:35.041Z,3.35
2022-10-17T03:22:03.098Z,3.03
2022-10-17T03:24:32.275Z,3.08
2022-10-17T03:27:00.152Z,2.78
2022-10-17T03:29:28.296Z,2.78
2022-10-17T03:31:56.987Z,3.70
2022-10-17T03:34:24.871Z,3.13
2022-10-17T03:36:54.355Z,3.10
2022-10-17T03:39:23.018Z,3.20
2022-10-17T03:41:50.835Z,3.40
2022-10-17T03:44:19.204Z,3.55
2022-10-17T03:46:47.102Z,2.95
2022-10-17T03:49:16.026Z,3.00
2022-10-17T03:51:43.939Z,3.22
2022-10-17T03:54:16.499Z,3.42
2022-10-17T03:56:44.623Z,3.22
2022-10-17T03:59:16.622Z,3.33
2022-10-17T04:01:51.525Z,3.38
2022-10-17T04:04:20.151Z,3.45
2022-10-17T04:06:47.953Z,3.50
2022-10-17T04:09:17.408Z,3.78
2022-10-17T04:11:59.871Z,3.55
2022-10-17T04:14:27.935Z,3.53
2022-10-17T04:16:55.863Z,3.33
2022-10-17T04:19:23.755Z,3.47
2022-10-17T04:21:51.696Z,3.20
2022-10-17T04:24:21.967Z,3.17
2022-10-17T04:26:59.112Z,3.40
2022-10-17T04:29:30.046Z,3.08
2022-10-17T04:32:06.518Z,3.33
2022-10-17T04:34:40.930Z,3.45
2022-10-17T04:37:08.855Z,3.17
2022-10-17T04:39:38.931Z,3.58
2022-10-17T04:42:07.015Z,3.35
2022-10-17T04:44:35.702Z,2.92
2022-10-17T04:47:03.756Z,3.03
2022-10-17T04:49:32.630Z,2.47
2022-10-17T04:52:08.856Z,2.60
2022-10-17T04:54:42.238Z,2.70
2022-10-17T04:57:12.316Z,2.85
2022-10-17T04:59:42.074Z,3.10
2022-10-17T05:02:19.722Z,3.10
2022-10-17T05:04:48.536Z,3.33
2022-10-17T05:07:17.330Z,2.55
2022-10-17T05:10:07.109Z,2.88
2022-10-17T05:12:35.020Z,2.65
2022-10-17T05:15:02.925Z,2.70
2022-10-17T05:17:31.650Z,2.75
2022-10-17T05:19:59.550Z,2.67
2022-10-17T05:22:27.534Z,3.20
2022-10-17T05:24:57.032Z,3.30
2022-10-17T05:27:26.277Z,3.10
2022-10-17T05:29:54.365Z,3.28
2022-10-17T05:32:28.421Z,3.10
2022-10-17T05:34:56.757Z,3.22
2022-10-17T05:37:26.323Z,3.30
2022-10-17T05:39:56.967Z,3.10
2022-10-17T05:42:27.619Z,3.33
2022-10-17T05:44:55.880Z,2.83
2022-10-17T05:47:23.933Z,2.85
2022-10-17T05:49:52.634Z,3.03
2022-10-17T05:52:27.228Z,3.30
2022-10-17T05:55:07.940Z,2.92
2022-10-17T05:57:37.217Z,3.15
2022-10-17T06:00:09.138Z,3.10
2022-10-17T06:02:43.151Z,2.85
2022-10-17T06:05:13.748Z,3.00
2022-10-17T06:07:42.144Z,3.10
2022-10-17T06:10:12.361Z,3.00
2022-10-17T06:12:41.983Z,2.92
2022-10-17T06:15:10.944Z,2.97
2022-10-17T06:17:40.432Z,3.03
2022-10-17T06:20:09.567Z,2.25
2022-10-17T06:22:37.410Z,2.60
2022-10-17T06:25:10.697Z,2.60
2022-10-17T06:27:38.580Z,2.35
2022-10-17T06:30:09.216Z,2.70
2022-10-17T06:32:37.116Z,2.50
2022-10-17T06:35:05.200Z,2.38
2022-10-17T06:37:36.536Z,2.42
2022-10-17T06:40:10.462Z,2.60
2022-10-17T06:42:39.329Z,2.90
2022-10-17T06:45:29.212Z,2.40
2022-10-17T06:48:16.747Z,2.50
2022-10-17T06:50:51.567Z,2.80
2022-10-17T06:53:25.116Z,2.60
2022-10-17T06:56:27.225Z,2.22
2022-10-17T06:59:22.793Z,2.38
2022-10-17T07:01:58.664Z,2.28
2022-10-17T07:04:27.296Z,2.40
2022-10-17T07:06:55.205Z,2.22
2022-10-17T07:09:27.720Z,2.33
2022-10-17T07:11:58.706Z,1.95
2022-10-17T07:14:31.836Z,2.03
2022-10-17T07:17:01.836Z,2.45
2022-10-17T07:19:32.404Z,2.10
2022-10-17T07:22:00.525Z,2.10
2022-10-17T07:24:29.084Z,2.08
2022-10-17T07:27:09.205Z,1.75
2022-10-17T07:29:37.055Z,1.67
2022-10-17T07:32:11.168Z,2.00
2022-10-17T07:34:39.052Z,1.80
2022-10-17T07:37:09.887Z,1.70
2022-10-17T07:39:40.033Z,1.73
2022-10-17T07:42:08.632Z,1.77
2022-10-17T07:44:36.651Z,1.73
2022-10-17T07:47:05.199Z,1.70
2022-10-17T07:49:34.408Z,1.55
2022-10-17T07:52:02.381Z,2.13
2022-10-17T07:54:30.223Z,1.70
2022-10-17T07:56:58.057Z,1.50
2022-10-17T07:59:25.884Z,1.60
2022-10-17T08:01:56.517Z,1.60
2022-10-17T08:04:24.930Z,1.52
2022-10-17T08:07:05.415Z,1.63
2022-10-17T08:09:39.821Z,1.33
2022-10-17T08:12:07.723Z,1.70
2022-10-17T08:14:35.692Z,1.60
2022-10-17T08:17:03.973Z,1.75
2022-10-17T08:19:31.926Z,1.50
2022-10-17T08:22:02.020Z,1.77
2022-10-17T08:24:29.852Z,2.00
2022-10-17T08:26:58.330Z,1.95
2022-10-17T08:29:26.208Z,1.90
2022-10-17T08:31:58.608Z,2.20
2022-10-17T08:34:29.412Z,1.90
2022-10-17T08:36:57.394Z,2.13
2022-10-17T08:39:26.572Z,2.65
2022-10-17T08:42:04.677Z,1.75
2022-10-17T08:44:43.344Z,2.30
2022-10-17T08:47:12.784Z,2.20
2022-10-17T08:49:46.935Z,1.67
2022-10-17T08:52:19.671Z,1.60
2022-10-17T08:54:49.406Z,1.65
2022-10-17T08:57:18.650Z,1.83
2022-10-17T08:59:51.988Z,1.83
2022-10-17T09:02:37.003Z,1.40
2022-10-17T09:05:34.379Z,1.88
2022-10-17T09:08:12.274Z,1.67
2022-10-17T09:10:51.837Z,2.03
2022-10-17T09:13:28.412Z,2.38
2022-10-17T09:16:04.710Z,2.70
2022-10-17T09:18:34.327Z,2.53
2022-10-17T09:21:05.449Z,2.30
2022-10-17T09:23:42.612Z,2.17
2022-10-17T09:26:12.565Z,3.30
2022-10-17T09:28:42.124Z,2.55
2022-10-17T09:31:15.281Z,2.03
2022-10-17T09:33:59.987Z,1.38
2022-10-17T09:36:30.911Z,2.00
2022-10-17T09:39:00.747Z,1.85
2022-10-17T09:41:50.499Z,2.85
2022-10-17T09:44:22.461Z,2.30
2022-10-17T09:47:04.207Z,1.88
2022-10-17T09:49:33.739Z,1.88
2022-10-17T09:52:02.293Z,2.10
2022-10-17T09:54:37.711Z,2.00
2022-10-17T09:57:09.707Z,1.85
2022-10-17T09:59:39.099Z,1.73
2022-10-17T10:02:16.415Z,2.00
2022-10-17T10:05:09.280Z,2.10
2022-10-17T10:07:39.138Z,2.00
2022-10-17T10:10:09.847Z,2.13
2022-10-17T10:12:40.131Z,2.00
2022-10-17T10:15:34.426Z,2.15
2022-10-17T10:18:02.487Z,1.77
2022-10-17T10:20:34.245Z,1.95
2022-10-17T10:23:13.280Z,2.20
2022-10-17T10:25:51.199Z,2.05
2022-10-17T10:28:20.603Z,2.10
2022-10-17T10:30:50.608Z,2.10
2022-10-17T10:33:20.607Z,2.20
2022-10-17T10:35:55.146Z,1.95
2022-10-17T10:38:23.081Z,2.10
2022-10-17T10:40:52.411Z,2.05
2022-10-17T10:43:28.457Z,1.92
2022-10-17T10:45:56.342Z,1.95
2022-10-17T10:48:25.425Z,2.15
2022-10-17T10:50:55.578Z,2.25
2022-10-17T10:53:35.375Z,2.28
2022-10-17T10:56:07.710Z,2.30
2022-10-17T10:58:43.036Z,2.00
2022-10-17T11:01:16.716Z,2.20
2022-10-17T11:03:55.722Z,2.47
2022-10-17T11:06:26.398Z,2.30
2022-10-17T11:09:10.911Z,2.20
2022-10-17T11:11:42.806Z,2.60
2022-10-17T11:14:16.191Z,2.30
2022-10-17T11:16:48.346Z,2.08
2022-10-17T11:19:21.398Z,2.17
2022-10-17T11:21:52.815Z,2.05
2022-10-17T11:24:25.622Z,2.20
2022-10-17T11:26:56.932Z,2.13
2022-10-17T11:29:29.978Z,2.20
2022-10-17T11:32:00.502Z,2.63
2022-10-17T11:34:30.976Z,2.17
2022-10-17T11:37:00.996Z,2.20
2022-10-17T11:39:32.674Z,2.45
2022-10-17T11:42:04.344Z,1.90
2022-10-17T11:44:36.580Z,2.30
2022-10-17T11:47:07.767Z,2.13
2022-10-17T11:49:39.939Z,2.20
2022-10-17T11:52:44.380Z,1.80
2022-10-17T11:55:18.367Z,2.30
2022-10-17T11:57:56.268Z,2.00
2022-10-17T12:00:34.123Z,2.03
2022-10-17T12:03:12.025Z,1.80
2022-10-17T12:05:44.451Z,1.70
2022-10-17T12:08:18.115Z,1.88
2022-10-17T12:10:49.961Z,2.00
2022-10-17T12:13:50.372Z,1.95
2022-10-17T12:16:45.217Z,2.40
2022-10-17T12:19:30.790Z,2.20
2022-10-17T12:22:00.519Z,2.10
2022-10-17T12:24:37.970Z,2.20
2022-10-17T12:27:46.033Z,2.25
2022-10-17T12:30:25.349Z,2.30
2022-10-17T12:33:06.769Z,2.50
2022-10-17T12:35:36.937Z,2.27
2022-10-17T12:38:29.206Z,2.25
2022-10-17T12:41:01.306Z,2.40
2022-10-17T12:43:56.293Z,2.15
2022-10-17T12:46:47.757Z,2.40
2022-10-17T12:49:48.264Z,2.17
2022-10-17T12:52:28.931Z,2.40
2022-10-17T12:55:14.369Z,2.03
2022-10-17T12:57:49.285Z,2.00
2022-10-17T13:00:22.238Z,1.73
2022-10-17T13:02:51.103Z,2.70
2022-10-17T13:05:25.106Z,2.25
2022-10-17T13:07:53.367Z,2.10
2022-10-17T13:10:22.908Z,2.30
2022-10-17T13:12:51.344Z,2.10
2022-10-17T13:15:20.704Z,2.15
2022-10-17T13:17:57.193Z,2.33
2022-10-17T13:20:31.269Z,2.33
2022-10-17T13:23:00.791Z,2.65
2022-10-17T13:25:29.023Z,2.08
2022-10-17T13:28:11.781Z,2.63
2022-10-17T13:30:39.669Z,2.20
2022-10-17T13:33:20.458Z,2.10
2022-10-17T13:36:05.686Z,2.63
2022-10-17T13:38:36.749Z,4.47
2022-10-17T13:41:34.120Z,2.70
2022-10-17T13:44:02.770Z,2.45
2022-10-17T13:46:38.265Z,2.65
2022-10-17T13:49:12.967Z,2.80
2022-10-17T13:51:45.374Z,2.75
2022-10-17T13:54:25.627Z,2.67
2022-10-17T13:56:57.088Z,2.47
2022-10-17T13:59:28.607Z,2.63
2022-10-17T14:01:57.002Z,2.88
2022-10-17T14:04:24.917Z,3.00
2022-10-17T14:06:54.202Z,2.60
2022-10-17T14:09:23.863Z,2.50
2022-10-17T14:12:00.377Z,2.65
2022-10-17T14:14:32.162Z,2.67
2022-10-17T14:17:14.357Z,2.60
2022-10-17T14:19:42.395Z,2.50
2022-10-17T14:22:19.803Z,2.40
2022-10-17T14:24:48.013Z,2.30
2022-10-17T14:27:28.535Z,2.42
2022-10-17T14:30:00.645Z,2.47
2022-10-17T14:32:29.652Z,2.40
2022-10-17T14:35:17.807Z,2.50
2022-10-17T14:37:49.803Z,2.35
2022-10-17T14:40:20.082Z,2.60
2022-10-17T14:42:48.445Z,2.50
2022-10-17T14:45:23.490Z,2.88
2022-10-17T14:47:52.234Z,2.75
2022-10-17T14:50:25.242Z,2.50
2022-10-17T14:53:06.334Z,2.70
2022-10-17T14:55:36.200Z,2.70
2022-10-17T14:58:17.203Z,2.78
2022-10-17T15:00:45.053Z,2.80
2022-10-17T15:03:13.674Z,2.88
2022-10-17T15:05:41.581Z,3.30
2022-10-17T15:08:14.094Z,2.90
2022-10-17T15:10:42.731Z,2.70
2022-10-17T15:13:28.884Z,2.85
2022-10-17T15:15:58.214Z,2.63
2022-10-17T15:18:26.129Z,2.88
2022-10-17T15:21:04.567Z,3.13
2022-10-17T15:23:35.990Z,3.00
2022-10-17T15:26:03.974Z,2.85
2022-10-17T15:28:31.930Z,3.25
2022-10-17T15:30:59.950Z,3.05
2022-10-17T15:33:27.867Z,3.22
2022-10-17T15:35:55.757Z,3.00
2022-10-17T15:38:23.624Z,3.00
2022-10-17T15:40:52.898Z,3.08
2022-10-17T15:43:20.691Z,3.08
2022-10-17T15:45:48.666Z,2.90
2022-10-17T15:48:20.241Z,3.30
2022-10-17T15:50:48.080Z,3.50
2022-10-17T15:53:16.279Z,3.67
2022-10-17T15:55:44.146Z,3.47
2022-10-17T15:58:16.536Z,3.65
2022-10-17T16:00:44.804Z,3.42
2022-10-17T16:03:12.790Z,3.70
2022-10-17T16:05:40.663Z,3.65
2022-10-17T16:08:08.583Z,3.33
2022-10-17T16:10:38.366Z,3.78
2022-10-17T16:13:06.251Z,4.00
2022-10-17T16:15:35.488Z,3.92
2022-10-17T16:18:06.634Z,3.90
2022-10-17T16:20:36.520Z,3.90
2022-10-17T16:23:05.287Z,3.90
2022-10-17T16:25:33.454Z,3.95
2022-10-17T16:28:01.779Z,4.50
2022-10-17T16:30:31.079Z,4.00
2022-10-17T16:33:00.635Z,4.03
2022-10-17T16:35:33.393Z,4.25
2022-10-17T16:38:04.778Z,4.25
2022-10-17T16:40:32.801Z,4.43
2022-10-17T16:43:00.767Z,4.60
2022-10-17T16:45:28.807Z,4.97
2022-10-17T16:47:56.823Z,4.30
2022-10-17T16:50:26.203Z,4.40
2022-10-17T16:52:54.248Z,4.35
2022-10-17T16:55:22.161Z,3.90
2022-10-17T16:57:50.043Z,4.47
2022-10-17T17:00:18.687Z,5.13
2022-10-17T17:02:48.365Z,4.82
2022-10-17T17:05:16.619Z,4.43
2022-10-17T17:07:47.698Z,4.75
2022-10-17T17:10:15.728Z,5.05
2022-10-17T17:12:43.710Z,4.95
2022-10-17T17:15:11.635Z,4.57
2022-10-17T17:17:55.725Z,4.50
2022-10-17T17:20:24.006Z,5.32
2022-10-17T17:22:53.248Z,5.65
2022-10-17T17:25:21.094Z,5.10
2022-10-17T17:27:49.016Z,5.18
2022-10-17T17:30:17.014Z,5.20
2022-10-17T17:32:44.905Z,5.00
2022-10-17T17:35:12.827Z,3.67
2022-10-17T17:37:40.767Z,4.40
2022-10-17T17:40:11.523Z,4.22
2022-10-17T17:42:39.447Z,3.67
2022-10-17T17:45:08.387Z,3.63
2022-10-17T17:47:36.345Z,3.17
2022-10-17T17:50:04.714Z,3.40
2022-10-17T17:52:32.931Z,2.80
2022-10-17T17:55:01.147Z,3.10
2022-10-17T17:57:31.620Z,3.80
2022-10-17T17:59:59.591Z,3.15
2022-10-17T18:02:27.683Z,2.88
2022-10-17T18:04:55.792Z,3.22
2022-10-17T18:07:23.797Z,3.17
2022-10-17T18:09:51.972Z,2.97
2022-10-17T18:12:19.950Z,3.00
2022-10-17T18:14:50.115Z,2.40
2022-10-17T18:17:18.042Z,3.25
2022-10-17T18:19:45.998Z,3.40
2022-10-17T18:22:13.965Z,3.60
2022-10-17T18:24:42.557Z,3.33
2022-10-17T18:27:12.655Z,2.50
2022-10-17T18:29:40.625Z,3.03
2022-10-17T18:32:10.126Z,3.13
2022-10-17T18:34:38.068Z,3.47
2022-10-17T18:37:06.054Z,3.08
2022-10-17T18:39:34.134Z,3.05
2022-10-17T18:42:02.331Z,3.03
2022-10-17T18:44:30.476Z,2.85
2022-10-17T18:47:02.937Z,3.05
2022-10-17T18:49:33.676Z,2.90
2022-10-17T18:52:01.558Z,3.03
2022-10-17T18:54:32.125Z,3.63
2022-10-17T18:57:00.141Z,2.83
2022-10-17T18:59:28.345Z,3.63
2022-10-17T19:01:56.380Z,3.30
2022-10-17T19:04:24.438Z,2.92
2022-10-17T19:06:53.762Z,3.15
2022-10-17T19:09:21.742Z,3.13
2022-10-17T19:11:49.694Z,3.50
2022-10-17T19:14:17.675Z,3.90
2022-10-17T19:16:47.359Z,3.80
2022-10-17T19:19:17.045Z,3.63
2022-10-17T19:21:45.231Z,3.35
2022-10-17T19:24:16.117Z,4.13
2022-10-17T19:26:45.058Z,4.28
2022-10-17T19:29:14.990Z,4.40
2022-10-17T19:31:43.323Z,4.40
2022-10-17T19:34:11.651Z,4.10
2022-10-17T19:36:40.129Z,5.25
2022-10-17T19:39:09.567Z,5.75
2022-10-17T19:41:41.185Z,5.28
2022-10-17T19:44:09.294Z,5.90
2022-10-17T19:46:37.300Z,5.10
2022-10-17T19:49:06.119Z,6.00
2022-10-17T19:51:34.482Z,5.95
2022-10-17T19:54:05.410Z,6.05
2022-10-17T19:56:37.616Z,6.10
2022-10-17T19:59:08.426Z,6.93
2022-10-17T20:01:38.816Z,6.85
2022-10-17T20:04:07.281Z,6.47
2022-10-17T20:06:35.949Z,6.95
2022-10-17T20:09:04.874Z,6.28
2022-10-17T20:11:32.750Z,6.07
2022-10-17T20:14:01.845Z,6.50
2022-10-17T20:16:33.187Z,6.43
2022-10-17T20:19:05.566Z,6.95
2022-10-17T20:21:35.115Z,6.45
2022-10-17T20:24:04.777Z,6.97
2022-10-17T20:26:38.042Z,6.60
2022-10-17T20:29:10.869Z,6.93
2022-10-17T20:31:55.388Z,6.22
2022-10-17T20:34:23.351Z,7.30
2022-10-17T20:36:52.019Z,6.25
2022-10-17T20:39:21.371Z,6.65
2022-10-17T20:41:49.342Z,6.40
2022-10-17T20:44:17.327Z,6.15
2022-10-17T20:47:00.608Z,6.75
2022-10-17T20:49:31.406Z,6.25
2022-10-17T20:51:59.558Z,7.10
2022-10-17T20:54:29.347Z,6.95
2022-10-17T20:56:59.866Z,7.13
2022-10-17T20:59:30.760Z,7.15
2022-10-17T21:01:58.828Z,7.10
2022-10-17T21:04:45.556Z,7.60
2022-10-17T21:07:16.055Z,7.88
2022-10-17T21:09:45.369Z,7.30
2022-10-17T21:12:18.193Z,7.90
2022-10-17T21:14:54.127Z,8.10
2022-10-17T21:17:22.131Z,8.18
2022-10-17T21:19:50.095Z,7.43
2022-10-17T21:22:19.463Z,7.05
2022-10-17T21:24:47.415Z,5.90
2022-10-17T21:27:17.343Z,6.90
2022-10-17T21:29:45.320Z,5.38
2022-10-17T21:32:25.193Z,5.13
2022-10-17T21:35:01.337Z,5.32
2022-10-17T21:37:30.687Z,4.38
2022-10-17T21:39:58.560Z,4.60
2022-10-17T21:42:26.799Z,4.60
2022-10-17T21:44:54.830Z,4.40
2022-10-17T21:47:25.553Z,4.10
2022-10-17T21:49:56.083Z,2.97
2022-10-17T21:52:23.994Z,3.10
2022-10-17T21:54:53.306Z,2.70
2022-10-17T21:57:21.239Z,1.73
2022-10-17T21:59:50.115Z,2.67
2022-10-17T22:02:18.109Z,2.38
2022-10-17T22:04:45.989Z,2.45
2022-10-17T22:07:15.154Z,2.30
2022-10-17T22:09:44.274Z,2.42
2022-10-17T22:12:13.586Z,2.60
2022-10-17T22:14:41.527Z,2.50
2022-10-17T22:17:09.428Z,2.20
2022-10-17T22:19:37.335Z,2.03
2022-10-17T22:22:05.233Z,2.10
2022-10-17T22:24:33.211Z,2.05
2022-10-17T22:27:01.247Z,1.80
2022-10-17T22:29:30.637Z,2.08
2022-10-17T22:31:58.567Z,1.70
2022-10-17T22:34:26.578Z,1.90
2022-10-17T22:36:54.755Z,1.63
2022-10-17T22:39:22.660Z,2.00
2022-10-17T22:41:50.558Z,1.90
2022-10-17T22:44:18.538Z,1.75
2022-10-17T22:46:47.768Z,2.10
2022-10-17T22:49:15.878Z,2.17
2022-10-17T22:51:43.798Z,2.83
2022-10-17T22:54:11.711Z,2.78
2022-10-17T22:56:39.694Z,2.67
2022-10-17T22:59:07.603Z,2.95
2022-10-17T23:01:35.589Z,3.47
2022-10-17T23:04:04.911Z,3.50
2022-10-17T23:06:32.901Z,4.05
2022-10-17T23:09:00.827Z,3.97
2022-10-17T23:11:28.722Z,4.50
2022-10-17T23:13:56.707Z,4.57
2022-10-17T23:16:24.665Z,4.20
2022-10-17T23:18:52.639Z,5.47
2022-10-17T23:21:22.146Z,5.40
2022-10-17T23:23:50.061Z,5.30
2022-10-17T23:26:18.046Z,5.55
2022-10-17T23:28:46.054Z,5.47
2022-10-17T23:31:15.884Z,5.60
2022-10-17T23:33:44.870Z,5.80
2022-10-17T23:36:13.776Z,5.68
2022-10-17T23:38:43.883Z,5.88
2022-10-17T23:41:13.373Z,5.43
2022-10-17T23:43:41.876Z,5.43
2022-10-17T23:46:10.315Z,6.47
2022-10-17T23:48:38.891Z,5.90
2022-10-17T23:51:07.247Z,6.30
2022-10-17T23:53:35.524Z,5.97
2022-10-17T23:56:05.516Z,6.30
2022-10-17T23:58:33.791Z,6.40
